createdAt,value
2018-02-03T00:00:20.250Z,16.30
2018-02-03T00:01:22.716Z,15.50
2018-02-03T00:02:25.198Z,17.23
2018-02-03T00:03:27.677Z,15.93
2018-02-03T00:04:30.147Z,16.20
2018-02-03T00:05:32.714Z,15.30
2018-02-03T00:06:35.191Z,15.20
2018-02-03T00:07:37.675Z,14.02
2018-02-03T00:08:40.143Z,14.65
2018-02-03T00:09:42.602Z,14.30
2018-02-03T00:10:45.085Z,13.80
2018-02-03T00:11:47.554Z,13.68
2018-02-03T00:12:50.023Z,13.95
2018-02-03T00:13:52.501Z,13.45
2018-02-03T00:14:54.985Z,12.15
2018-02-03T00:15:57.466Z,12.70
2018-02-03T00:16:59.930Z,12.48
2018-02-03T00:18:02.412Z,12.32
2018-02-03T00:19:04.887Z,10.90
2018-02-03T00:20:07.346Z,12.00
2018-02-03T00:21:09.821Z,11.85
2018-02-03T00:22:12.295Z,11.77
2018-02-03T00:23:14.784Z,10.35
2018-02-03T00:24:17.268Z,10.98
2018-02-03T00:25:19.750Z,10.32
2018-02-03T00:26:22.232Z,12.00
2018-02-03T00:27:24.698Z,11.45
2018-02-03T00:28:27.163Z,11.90
2018-02-03T00:29:29.645Z,10.80
2018-02-03T00:30:32.125Z,11.00
2018-02-03T00:31:34.593Z,10.68
2018-02-03T00:32:37.067Z,11.52
2018-02-03T00:33:39.551Z,11.48
2018-02-03T00:34:42.022Z,11.23
2018-02-03T00:35:44.500Z,11.25
2018-02-03T00:36:46.977Z,10.55
2018-02-03T00:37:49.431Z,9.85
2018-02-03T00:38:51.941Z,9.05
2018-02-03T00:39:54.389Z,10.82
2018-02-03T00:40:56.846Z,9.88
2018-02-03T00:41:59.321Z,9.75
2018-02-03T00:43:01.799Z,9.75
2018-02-03T00:44:04.348Z,9.07
2018-02-03T00:45:06.821Z,8.82
2018-02-03T00:46:09.298Z,9.95
2018-02-03T00:47:11.762Z,10.55
2018-02-03T00:48:14.221Z,9.32
2018-02-03T00:49:16.683Z,8.98
2018-02-03T00:50:19.214Z,9.50
2018-02-03T00:51:21.671Z,9.05
2018-02-03T00:52:24.167Z,8.60
2018-02-03T00:53:26.625Z,8.57
2018-02-03T00:54:29.101Z,8.80
2018-02-03T00:55:31.575Z,9.38
2018-02-03T00:56:34.040Z,9.43
2018-02-03T00:57:36.515Z,9.82
2018-02-03T00:58:39.213Z,10.45
2018-02-03T00:59:41.671Z,11.05
2018-02-03T01:00:44.126Z,10.85
2018-02-03T01:01:46.601Z,10.80
2018-02-03T01:02:49.061Z,11.43
2018-02-03T01:03:51.529Z,10.73
2018-02-03T01:04:54.014Z,11.02
2018-02-03T01:05:56.490Z,10.88
2018-02-03T01:06:58.969Z,10.90
2018-02-03T01:08:01.448Z,11.25
2018-02-03T01:09:03.945Z,11.73
2018-02-03T01:10:06.434Z,11.63
2018-02-03T01:11:08.908Z,11.38
2018-02-03T01:12:11.376Z,11.02
2018-02-03T01:13:13.839Z,10.88
2018-02-03T01:14:16.311Z,10.73
2018-02-03T01:15:18.790Z,11.05
2018-02-03T01:16:21.255Z,10.82
2018-02-03T01:17:23.834Z,10.27
2018-02-03T01:18:26.329Z,11.73
2018-02-03T01:19:28.821Z,10.75
2018-02-03T01:20:31.290Z,12.02
2018-02-03T01:21:33.751Z,12.07
2018-02-03T01:22:36.224Z,11.25
2018-02-03T01:23:38.716Z,12.05
2018-02-03T01:24:41.179Z,13.02
2018-02-03T01:25:43.653Z,12.20
2018-02-03T01:26:46.110Z,12.18
2018-02-03T01:27:48.574Z,12.13
2018-02-03T01:28:51.049Z,11.70
2018-02-03T01:29:53.528Z,12.30
2018-02-03T01:30:55.995Z,13.05
2018-02-03T01:31:58.455Z,12.18
2018-02-03T01:33:00.929Z,11.90
2018-02-03T01:34:03.395Z,12.68
2018-02-03T01:35:05.858Z,14.20
2018-02-03T01:36:08.328Z,13.43
2018-02-03T01:37:10.814Z,13.40
2018-02-03T01:38:13.299Z,12.85
2018-02-03T01:39:15.762Z,12.48
2018-02-03T01:40:18.237Z,13.20
2018-02-03T01:41:20.719Z,12.88
2018-02-03T01:42:23.206Z,12.77
2018-02-03T01:43:25.681Z,13.13
2018-02-03T01:44:28.197Z,12.48
2018-02-03T01:45:30.676Z,12.75
2018-02-03T01:46:33.158Z,13.85
2018-02-03T01:47:47.504Z,13.98
2018-02-03T01:48:49.985Z,12.50
2018-02-03T01:49:52.463Z,13.77
2018-02-03T01:50:54.922Z,12.23
2018-02-03T01:51:57.403Z,11.25
2018-02-03T01:52:59.878Z,12.82
2018-02-03T01:54:02.366Z,12.93
2018-02-03T01:55:04.835Z,13.10
2018-02-03T01:56:07.303Z,13.10
2018-02-03T01:57:09.786Z,12.55
2018-02-03T01:58:12.294Z,12.57
2018-02-03T01:59:14.816Z,14.05
2018-02-03T02:00:17.305Z,13.60
2018-02-03T02:01:19.799Z,13.90
2018-02-03T02:02:22.262Z,13.90
2018-02-03T02:03:24.750Z,13.70
2018-02-03T02:04:27.230Z,14.52
2018-02-03T02:05:29.708Z,13.75
2018-02-03T02:06:32.170Z,13.50
2018-02-03T02:07:34.662Z,14.82
2018-02-03T02:08:37.160Z,14.35
2018-02-03T02:09:39.623Z,13.70
2018-02-03T02:10:42.095Z,14.30
2018-02-03T02:11:44.569Z,14.60
2018-02-03T02:12:47.034Z,15.38
2018-02-03T02:13:49.528Z,15.00
2018-02-03T02:14:52.004Z,14.30
2018-02-03T02:15:54.476Z,13.90
2018-02-03T02:16:56.940Z,15.93
2018-02-03T02:17:59.416Z,15.68
2018-02-03T02:19:01.929Z,14.65
2018-02-03T02:20:04.408Z,14.90
2018-02-03T02:21:06.892Z,15.13
2018-02-03T02:22:09.375Z,15.02
2018-02-03T02:23:11.850Z,14.50
2018-02-03T02:24:14.377Z,16.50
2018-02-03T02:25:16.835Z,14.77
2018-02-03T02:26:19.298Z,13.68
2018-02-03T02:27:21.758Z,15.27
2018-02-03T02:28:24.232Z,14.98
2018-02-03T02:29:26.714Z,13.60
2018-02-03T02:30:29.194Z,12.45
2018-02-03T02:31:31.669Z,13.40
2018-02-03T02:32:34.136Z,13.75
2018-02-03T02:33:36.617Z,13.95
2018-02-03T02:34:39.102Z,14.55
2018-02-03T02:35:41.576Z,11.88
2018-02-03T02:36:44.038Z,13.30
2018-02-03T02:37:46.512Z,14.15
2018-02-03T02:38:49.023Z,13.00
2018-02-03T02:39:51.533Z,12.55
2018-02-03T02:40:53.995Z,13.38
2018-02-03T02:41:56.473Z,13.35
2018-02-03T02:42:58.960Z,13.50
2018-02-03T02:44:01.427Z,13.43
2018-02-03T02:45:03.923Z,13.10
2018-02-03T02:46:06.388Z,13.32
2018-02-03T02:47:08.861Z,13.13
2018-02-03T02:48:11.323Z,13.18
2018-02-03T02:49:13.787Z,13.25
2018-02-03T02:50:16.289Z,14.95
2018-02-03T02:51:18.777Z,12.57
2018-02-03T02:52:21.250Z,13.05
2018-02-03T02:53:23.725Z,13.30
2018-02-03T02:54:26.196Z,14.00
2018-02-03T02:55:28.695Z,14.05
2018-02-03T02:56:31.185Z,13.95
2018-02-03T02:57:33.665Z,13.10
2018-02-03T02:58:36.139Z,12.90
2018-02-03T02:59:38.621Z,12.60
2018-02-03T03:00:41.102Z,13.05
2018-02-03T03:01:43.575Z,12.52
2018-02-03T03:02:46.057Z,13.65
2018-02-03T03:03:48.536Z,13.70
2018-02-03T03:04:51.011Z,13.45
2018-02-03T03:05:53.529Z,12.15
2018-02-03T03:06:56.020Z,13.38
2018-02-03T03:07:58.483Z,12.00
2018-02-03T03:09:00.957Z,12.88
2018-02-03T03:10:03.435Z,13.10
2018-02-03T03:11:05.921Z,12.80
2018-02-03T03:12:08.401Z,12.23
2018-02-03T03:13:10.892Z,12.65
2018-02-03T03:14:13.360Z,12.20
2018-02-03T03:15:15.823Z,11.90
2018-02-03T03:16:18.321Z,11.80
2018-02-03T03:17:20.813Z,11.48
2018-02-03T03:18:23.272Z,11.93
2018-02-03T03:19:25.748Z,12.50
2018-02-03T03:20:28.236Z,12.00
2018-02-03T03:21:30.740Z,11.95
2018-02-03T03:22:33.400Z,12.25
2018-02-03T03:23:35.874Z,12.85
2018-02-03T03:24:38.368Z,13.38
2018-02-03T03:25:40.846Z,11.20
2018-02-03T03:26:43.351Z,12.82
2018-02-03T03:27:45.823Z,11.98
2018-02-03T03:28:48.306Z,13.82
2018-02-03T03:29:50.793Z,14.25
2018-02-03T03:30:53.262Z,12.07
2018-02-03T03:31:55.755Z,14.15
2018-02-03T03:32:58.247Z,12.32
2018-02-03T03:34:00.724Z,13.13
2018-02-03T03:35:03.209Z,12.35
2018-02-03T03:36:05.688Z,13.02
2018-02-03T03:37:08.179Z,13.38
2018-02-03T03:38:10.658Z,12.05
2018-02-03T03:39:13.117Z,11.95
2018-02-03T03:40:15.589Z,12.48
2018-02-03T03:41:18.052Z,12.40
2018-02-03T03:42:20.535Z,13.38
2018-02-03T03:43:23.006Z,12.80
2018-02-03T03:44:25.505Z,12.13
2018-02-03T03:45:27.970Z,11.80
2018-02-03T03:46:30.450Z,12.05
2018-02-03T03:47:32.942Z,11.90
2018-02-03T03:48:35.404Z,12.95
2018-02-03T03:49:37.890Z,13.30
2018-02-03T03:50:40.359Z,12.35
2018-02-03T03:51:42.834Z,14.07
2018-02-03T03:52:45.294Z,12.70
2018-02-03T03:53:47.782Z,13.55
2018-02-03T03:54:50.247Z,12.27
2018-02-03T03:55:52.710Z,12.10
2018-02-03T03:56:55.178Z,12.07
2018-02-03T03:57:57.662Z,11.55
2018-02-03T03:59:00.143Z,12.02
2018-02-03T04:00:02.607Z,11.75
2018-02-03T04:01:05.066Z,11.27
2018-02-03T04:02:07.530Z,10.48
2018-02-03T04:03:10.027Z,11.15
2018-02-03T04:04:12.514Z,12.10
2018-02-03T04:05:14.980Z,10.52
2018-02-03T04:06:17.462Z,10.82
2018-02-03T04:07:19.997Z,11.02
2018-02-03T04:08:22.467Z,10.23
2018-02-03T04:09:24.934Z,11.10
2018-02-03T04:10:27.412Z,11.05
2018-02-03T04:11:29.889Z,12.07
2018-02-03T04:12:32.359Z,11.15
2018-02-03T04:13:34.819Z,11.25
2018-02-03T04:14:37.293Z,10.15
2018-02-03T04:15:39.756Z,10.68
2018-02-03T04:16:42.229Z,12.00
2018-02-03T04:17:44.692Z,12.02
2018-02-03T04:18:47.164Z,10.57
2018-02-03T04:19:49.677Z,10.07
2018-02-03T04:20:52.137Z,10.30
2018-02-03T04:21:54.629Z,10.25
2018-02-03T04:22:57.110Z,10.75
2018-02-03T04:23:59.575Z,12.55
2018-02-03T04:25:02.040Z,12.15
2018-02-03T04:26:04.545Z,11.40
2018-02-03T04:27:07.026Z,12.25
2018-02-03T04:28:09.493Z,12.15
2018-02-03T04:29:11.969Z,13.77
2018-02-03T04:30:14.453Z,11.35
2018-02-03T04:31:16.919Z,10.55
2018-02-03T04:32:19.396Z,11.05
2018-02-03T04:33:21.869Z,10.13
2018-02-03T04:34:24.330Z,11.10
2018-02-03T04:35:26.813Z,11.65
2018-02-03T04:36:29.274Z,10.40
2018-02-03T04:37:31.769Z,11.50
2018-02-03T04:38:34.267Z,10.30
2018-02-03T04:39:36.741Z,10.98
2018-02-03T04:40:39.219Z,11.00
2018-02-03T04:41:41.686Z,10.25
2018-02-03T04:42:44.161Z,10.02
2018-02-03T04:43:46.631Z,9.23
2018-02-03T04:44:49.108Z,10.05
2018-02-03T04:45:51.575Z,9.57
2018-02-03T04:46:54.056Z,11.05
2018-02-03T04:47:56.528Z,10.77
2018-02-03T04:48:58.997Z,11.18
2018-02-03T04:50:01.470Z,10.45
2018-02-03T04:51:03.934Z,10.35
2018-02-03T04:52:06.399Z,10.88
2018-02-03T04:53:08.866Z,11.98
2018-02-03T04:54:11.349Z,12.00
2018-02-03T04:55:13.871Z,11.75
2018-02-03T04:56:16.313Z,11.10
2018-02-03T04:57:18.786Z,11.50
2018-02-03T04:58:21.252Z,9.90
2018-02-03T04:59:23.742Z,10.48
2018-02-03T05:00:26.217Z,9.55
2018-02-03T05:01:28.688Z,10.80
2018-02-03T05:02:31.903Z,10.30
2018-02-03T05:03:34.444Z,10.65
2018-02-03T05:04:36.886Z,9.60
2018-02-03T05:05:39.350Z,11.50
2018-02-03T05:06:41.818Z,10.40
2018-02-03T05:07:44.297Z,10.23
2018-02-03T05:08:46.773Z,9.57
2018-02-03T05:09:49.230Z,10.27
2018-02-03T05:10:51.743Z,8.88
2018-02-03T05:11:54.206Z,8.90
2018-02-03T05:12:56.659Z,9.50
2018-02-03T05:13:59.135Z,9.45
2018-02-03T05:15:01.595Z,10.02
2018-02-03T05:16:04.069Z,8.50
2018-02-03T05:17:06.594Z,10.13
2018-02-03T05:18:09.080Z,10.38
2018-02-03T05:19:11.541Z,9.25
2018-02-03T05:20:14.002Z,9.05
2018-02-03T05:21:16.531Z,9.90
2018-02-03T05:22:18.978Z,8.82
2018-02-03T05:23:21.438Z,10.23
2018-02-03T05:24:24.326Z,9.93
2018-02-03T05:25:26.812Z,9.57
2018-02-03T05:26:29.317Z,8.43
2018-02-03T05:27:31.812Z,8.30
2018-02-03T05:28:34.274Z,9.45
2018-02-03T05:29:36.739Z,9.23
2018-02-03T05:30:39.206Z,9.50
2018-02-03T05:31:41.670Z,8.50
2018-02-03T05:32:44.122Z,9.27
2018-02-03T05:33:46.586Z,9.90
2018-02-03T05:34:49.076Z,10.10
2018-02-03T05:35:51.547Z,10.15
2018-02-03T05:36:54.017Z,9.02
2018-02-03T05:37:56.474Z,9.20
2018-02-03T05:38:58.945Z,9.10
2018-02-03T05:40:01.406Z,9.38
2018-02-03T05:41:03.881Z,9.60
2018-02-03T05:42:06.334Z,8.57
2018-02-03T05:43:08.790Z,9.50
2018-02-03T05:44:12.169Z,9.25
2018-02-03T05:45:16.173Z,9.05
2018-02-03T05:46:18.709Z,9.15
2018-02-03T05:47:21.180Z,9.00
2018-02-03T05:48:23.664Z,10.40
2018-02-03T05:49:26.122Z,8.85
2018-02-03T05:50:28.640Z,8.52
2018-02-03T05:51:31.147Z,9.20
2018-02-03T05:52:33.654Z,8.75
2018-02-03T05:53:36.107Z,8.70
2018-02-03T05:54:38.567Z,8.70
2018-02-03T05:55:41.031Z,9.18
2018-02-03T05:56:43.542Z,8.68
2018-02-03T05:57:46.006Z,10.30
2018-02-03T05:58:48.474Z,9.27
2018-02-03T05:59:50.963Z,10.27
2018-02-03T06:00:53.444Z,9.43
2018-02-03T06:01:55.927Z,8.73
2018-02-03T06:02:58.388Z,9.77
2018-02-03T06:04:00.851Z,8.48
2018-02-03T06:05:03.342Z,10.35
2018-02-03T06:06:05.818Z,10.02
2018-02-03T06:07:08.305Z,9.52
2018-02-03T06:08:10.767Z,10.13
2018-02-03T06:09:13.249Z,10.88
2018-02-03T06:10:15.725Z,9.43
2018-02-03T06:11:18.197Z,9.60
2018-02-03T06:12:20.682Z,10.77
2018-02-03T06:13:23.216Z,9.40
2018-02-03T06:14:25.712Z,9.15
2018-02-03T06:15:28.194Z,11.45
2018-02-03T06:16:30.663Z,12.02
2018-02-03T06:17:33.154Z,10.82
2018-02-03T06:18:35.618Z,10.23
2018-02-03T06:19:38.092Z,10.70
2018-02-03T06:20:40.573Z,12.57
2018-02-03T06:21:43.049Z,13.15
2018-02-03T06:22:45.552Z,13.05
2018-02-03T06:23:48.025Z,12.43
2018-02-03T06:24:50.478Z,11.20
2018-02-03T06:25:52.996Z,10.85
2018-02-03T06:26:55.466Z,10.90
2018-02-03T06:27:57.950Z,10.45
2018-02-03T06:29:00.433Z,10.52
2018-02-03T06:30:02.900Z,11.15
2018-02-03T06:31:05.390Z,10.77
2018-02-03T06:32:07.862Z,9.45
2018-02-03T06:33:10.354Z,10.68
2018-02-03T06:34:12.824Z,10.60
2018-02-03T06:35:15.301Z,10.57
2018-02-03T06:36:17.779Z,11.12
2018-02-03T06:37:20.254Z,11.35
2018-02-03T06:38:22.749Z,11.12
2018-02-03T06:39:25.229Z,9.63
2018-02-03T06:40:27.704Z,11.12
2018-02-03T06:41:30.195Z,10.93
2018-02-03T06:42:33.409Z,10.00
2018-02-03T06:43:35.887Z,11.10
2018-02-03T06:44:38.364Z,10.57
2018-02-03T06:45:40.841Z,10.43
2018-02-03T06:46:43.314Z,9.88
2018-02-03T06:47:45.788Z,11.35
2018-02-03T06:48:48.288Z,10.60
2018-02-03T06:49:50.750Z,10.55
2018-02-03T06:50:53.215Z,11.18
2018-02-03T06:51:55.693Z,10.55
2018-02-03T06:52:58.163Z,11.07
2018-02-03T06:54:00.661Z,11.57
2018-02-03T06:55:03.127Z,11.40
2018-02-03T06:56:05.587Z,11.15
2018-02-03T06:57:08.081Z,11.68
2018-02-03T06:58:10.547Z,12.90
2018-02-03T06:59:13.048Z,13.15
2018-02-03T07:00:15.530Z,11.70
2018-02-03T07:01:18.012Z,11.05
2018-02-03T07:02:20.484Z,12.27
2018-02-03T07:03:22.960Z,12.95
2018-02-03T07:04:25.443Z,15.07
2018-02-03T07:05:27.915Z,13.30
2018-02-03T07:06:30.397Z,14.45
2018-02-03T07:07:32.862Z,16.15
2018-02-03T07:08:35.333Z,17.35
2018-02-03T07:09:37.825Z,21.30
2018-02-03T07:10:40.286Z,18.35
2018-02-03T07:11:42.773Z,18.27
2018-02-03T07:12:45.264Z,17.30
2018-02-03T07:13:47.736Z,15.68
2018-02-03T07:14:50.271Z,14.18
2018-02-03T07:15:52.749Z,15.45
2018-02-03T07:16:55.219Z,12.85
2018-02-03T07:17:57.701Z,12.18
2018-02-03T07:19:00.235Z,12.55
2018-02-03T07:20:02.709Z,13.40
2018-02-03T07:21:05.956Z,13.60
2018-02-03T07:22:08.498Z,12.85
2018-02-03T07:23:10.981Z,13.32
2018-02-03T07:24:13.460Z,12.90
2018-02-03T07:25:15.983Z,13.80
2018-02-03T07:26:18.447Z,13.52
2018-02-03T07:27:20.933Z,13.77
2018-02-03T07:28:23.447Z,13.38
2018-02-03T07:29:27.323Z,14.05
2018-02-03T07:30:30.174Z,14.40
2018-02-03T07:31:32.685Z,16.05
2018-02-03T07:32:35.271Z,16.58
2018-02-03T07:33:37.719Z,16.15
2018-02-03T07:34:40.352Z,16.55
2018-02-03T07:35:42.903Z,16.58
2018-02-03T07:36:45.416Z,15.52
2018-02-03T07:37:47.883Z,13.70
2018-02-03T07:38:50.406Z,15.82
2018-02-03T07:39:52.897Z,14.85
2018-02-03T07:40:55.383Z,16.25
2018-02-03T07:41:57.868Z,15.07
2018-02-03T07:43:00.408Z,14.98
2018-02-03T07:44:02.866Z,14.80
2018-02-03T07:45:05.341Z,15.00
2018-02-03T07:46:07.829Z,14.60
2018-02-03T07:47:10.301Z,14.15
2018-02-03T07:48:12.785Z,14.27
2018-02-03T07:49:15.268Z,14.45
2018-02-03T07:50:17.753Z,15.07
2018-02-03T07:51:20.277Z,15.60
2018-02-03T07:52:22.757Z,14.07
2018-02-03T07:53:25.219Z,14.25
2018-02-03T07:54:27.696Z,14.80
2018-02-03T07:55:30.159Z,13.27
2018-02-03T07:56:32.642Z,13.68
2018-02-03T07:57:35.115Z,13.10
2018-02-03T07:58:37.582Z,13.13
2018-02-03T07:59:40.073Z,12.63
2018-02-03T08:00:42.666Z,12.50
2018-02-03T08:01:45.150Z,10.43
2018-02-03T08:02:47.629Z,11.70
2018-02-03T08:03:50.109Z,11.18
2018-02-03T08:04:52.581Z,11.25
2018-02-03T08:05:55.064Z,10.95
2018-02-03T08:06:57.552Z,14.07
2018-02-03T08:08:00.049Z,13.45
2018-02-03T08:09:02.533Z,11.90
2018-02-03T08:10:04.995Z,12.05
2018-02-03T08:11:07.466Z,13.02
2018-02-03T08:12:09.964Z,13.13
2018-02-03T08:13:12.426Z,12.80
2018-02-03T08:14:14.901Z,13.23
2018-02-03T08:15:17.370Z,11.23
2018-02-03T08:16:19.849Z,12.30
2018-02-03T08:17:22.327Z,13.02
2018-02-03T08:18:24.951Z,12.93
2018-02-03T08:19:27.521Z,13.50
2018-02-03T08:20:30.001Z,13.23
2018-02-03T08:21:32.471Z,12.45
2018-02-03T08:22:34.955Z,12.25
2018-02-03T08:23:37.415Z,11.70
2018-02-03T08:24:39.874Z,13.27
2018-02-03T08:25:42.349Z,13.88
2018-02-03T08:26:44.821Z,12.90
2018-02-03T08:27:47.318Z,14.00
2018-02-03T08:28:49.796Z,14.63
2018-02-03T08:29:52.272Z,13.55
2018-02-03T08:30:54.762Z,13.88
2018-02-03T08:31:57.232Z,12.40
2018-02-03T08:32:59.737Z,13.02
2018-02-03T08:34:02.248Z,12.88
2018-02-03T08:35:04.716Z,13.38
2018-02-03T08:36:07.175Z,11.68
2018-02-03T08:37:10.024Z,12.70
2018-02-03T08:38:12.780Z,13.43
2018-02-03T08:39:15.345Z,14.00
2018-02-03T08:40:17.831Z,13.25
2018-02-03T08:41:20.323Z,13.32
2018-02-03T08:42:22.804Z,13.23
2018-02-03T08:43:25.305Z,14.52
2018-02-03T08:44:27.794Z,13.77
2018-02-03T08:45:30.337Z,14.57
2018-02-03T08:46:32.808Z,14.82
2018-02-03T08:47:35.303Z,15.10
2018-02-03T08:48:37.809Z,15.25
2018-02-03T08:49:40.289Z,18.12
2018-02-03T08:50:42.754Z,28.12
2018-02-03T08:51:45.261Z,13.70
2018-02-03T08:52:47.730Z,16.15
2018-02-03T08:53:50.219Z,16.00
2018-02-03T08:54:52.682Z,17.20
2018-02-03T08:55:55.157Z,20.15
2018-02-03T08:56:57.622Z,36.05
2018-02-03T08:58:00.113Z,16.80
2018-02-03T08:59:02.598Z,22.58
2018-02-03T09:00:05.063Z,14.90
2018-02-03T09:01:07.546Z,21.55
2018-02-03T09:02:10.011Z,32.65
2018-02-03T09:03:12.600Z,15.45
2018-02-03T09:04:15.095Z,17.12
2018-02-03T09:05:17.577Z,14.52
2018-02-03T09:06:20.067Z,12.85
2018-02-03T09:07:22.535Z,13.90
2018-02-03T09:08:24.999Z,18.87
2018-02-03T09:09:27.520Z,13.60
2018-02-03T09:10:29.986Z,24.05
2018-02-03T09:11:32.470Z,19.70
2018-02-03T09:12:34.963Z,31.70
2018-02-03T09:13:37.453Z,47.25
2018-02-03T09:14:39.961Z,161.27
2018-02-03T09:15:42.446Z,101.45
2018-02-03T09:16:44.918Z,138.60
2018-02-03T09:17:47.390Z,102.68
2018-02-03T09:18:49.947Z,26.52
2018-02-03T09:19:52.471Z,24.95
2018-02-03T09:20:54.992Z,64.75
2018-02-03T09:21:57.477Z,46.05
2018-02-03T09:22:59.953Z,13.50
2018-02-03T09:24:02.440Z,12.30
2018-02-03T09:25:04.957Z,12.35
2018-02-03T09:26:07.449Z,34.88
2018-02-03T09:27:10.185Z,15.75
2018-02-03T09:28:12.682Z,63.70
2018-02-03T09:29:15.182Z,34.83
2018-02-03T09:30:17.698Z,26.45
2018-02-03T09:31:20.185Z,30.92
2018-02-03T09:32:22.683Z,19.77
2018-02-03T09:33:25.175Z,13.30
2018-02-03T09:34:27.664Z,22.95
2018-02-03T09:35:30.142Z,18.00
2018-02-03T09:36:32.620Z,18.05
2018-02-03T09:37:35.090Z,19.15
2018-02-03T09:38:37.569Z,25.40
2018-02-03T09:39:40.075Z,27.00
2018-02-03T09:40:42.601Z,32.70
2018-02-03T09:41:45.075Z,18.85
2018-02-03T09:42:47.538Z,22.52
2018-02-03T09:43:50.015Z,13.25
2018-02-03T09:44:52.498Z,13.07
2018-02-03T09:45:54.992Z,13.88
2018-02-03T09:46:57.472Z,13.23
2018-02-03T09:47:59.953Z,12.68
2018-02-03T09:49:02.776Z,13.62
2018-02-03T09:50:06.153Z,16.60
2018-02-03T09:51:08.619Z,13.73
2018-02-03T09:52:11.096Z,14.20
2018-02-03T09:53:13.577Z,13.50
2018-02-03T09:54:16.047Z,12.55
2018-02-03T09:55:18.549Z,15.20
2018-02-03T09:56:21.032Z,15.90
2018-02-03T09:57:23.520Z,13.82
2018-02-03T09:58:26.035Z,12.43
2018-02-03T09:59:28.525Z,13.05
2018-02-03T10:00:31.027Z,13.80
2018-02-03T10:01:33.568Z,12.80
2018-02-03T10:02:36.171Z,12.37
2018-02-03T10:03:38.645Z,12.25
2018-02-03T10:04:41.123Z,13.10
2018-02-03T10:05:43.734Z,15.15
2018-02-03T10:06:46.212Z,11.68
2018-02-03T10:07:48.692Z,11.40
2018-02-03T10:08:51.179Z,11.23
2018-02-03T10:09:53.652Z,12.60
2018-02-03T10:10:56.156Z,11.38
2018-02-03T10:11:58.637Z,11.45
2018-02-03T10:13:01.100Z,11.15
2018-02-03T10:14:03.566Z,11.45
2018-02-03T10:15:06.042Z,12.73
2018-02-03T10:16:08.539Z,11.63
2018-02-03T10:17:11.017Z,11.35
2018-02-03T10:18:13.482Z,10.23
2018-02-03T10:19:15.939Z,12.73
2018-02-03T10:20:18.411Z,12.65
2018-02-03T10:21:20.922Z,12.32
2018-02-03T10:22:23.436Z,12.95
2018-02-03T10:23:25.949Z,11.77
2018-02-03T10:24:28.443Z,11.50
2018-02-03T10:25:30.928Z,11.15
2018-02-03T10:26:33.466Z,11.20
2018-02-03T10:27:35.949Z,11.15
2018-02-03T10:28:38.412Z,11.73
2018-02-03T10:29:40.883Z,10.75
2018-02-03T10:30:43.393Z,11.00
2018-02-03T10:31:45.883Z,11.68
2018-02-03T10:32:48.357Z,11.25
2018-02-03T10:33:50.822Z,12.63
2018-02-03T10:34:53.450Z,12.75
2018-02-03T10:35:55.989Z,11.15
2018-02-03T10:36:58.492Z,11.48
2018-02-03T10:38:00.970Z,11.45
2018-02-03T10:39:03.447Z,11.45
2018-02-03T10:40:05.937Z,13.02
2018-02-03T10:41:08.405Z,11.18
2018-02-03T10:42:10.909Z,11.73
2018-02-03T10:43:13.379Z,11.23
2018-02-03T10:44:15.839Z,11.90
2018-02-03T10:45:18.318Z,12.65
2018-02-03T10:46:20.784Z,11.52
2018-02-03T10:47:23.284Z,12.30
2018-02-03T10:48:25.754Z,12.90
2018-02-03T10:49:28.212Z,12.63
2018-02-03T10:50:30.691Z,12.82
2018-02-03T10:51:33.248Z,15.80
2018-02-03T10:52:35.753Z,11.55
2018-02-03T10:53:38.216Z,12.37
2018-02-03T10:54:40.717Z,10.60
2018-02-03T10:55:43.195Z,12.30
2018-02-03T10:56:45.668Z,10.80
2018-02-03T10:57:48.179Z,11.63
2018-02-03T10:58:50.717Z,12.05
2018-02-03T10:59:53.188Z,11.12
2018-02-03T11:01:01.267Z,9.82
2018-02-03T11:02:03.743Z,12.37
2018-02-03T11:03:06.379Z,11.30
2018-02-03T11:04:08.875Z,11.35
2018-02-03T11:05:11.424Z,10.75
2018-02-03T11:06:13.947Z,10.18
2018-02-03T11:07:17.321Z,11.50
2018-02-03T11:08:19.836Z,11.23
2018-02-03T11:09:22.354Z,12.02
2018-02-03T11:10:24.833Z,12.48
2018-02-03T11:11:27.318Z,11.48
2018-02-03T11:12:29.833Z,11.63
2018-02-03T11:13:32.351Z,11.85
2018-02-03T11:14:34.826Z,11.63
2018-02-03T11:15:37.301Z,12.50
2018-02-03T11:16:39.777Z,13.48
2018-02-03T11:17:42.261Z,12.80
2018-02-03T11:18:44.770Z,12.73
2018-02-03T11:19:47.253Z,11.57
2018-02-03T11:20:49.719Z,10.98
2018-02-03T11:21:52.267Z,11.25
2018-02-03T11:22:54.764Z,10.40
2018-02-03T11:23:57.277Z,11.52
2018-02-03T11:24:59.742Z,10.55
2018-02-03T11:26:02.243Z,11.60
2018-02-03T11:27:04.774Z,11.82
2018-02-03T11:28:07.238Z,10.38
2018-02-03T11:29:09.718Z,9.55
2018-02-03T11:30:12.200Z,11.52
2018-02-03T11:31:14.682Z,9.93
2018-02-03T11:32:17.147Z,11.52
2018-02-03T11:33:19.619Z,11.23
2018-02-03T11:34:22.123Z,10.70
2018-02-03T11:35:24.618Z,11.45
2018-02-03T11:36:27.105Z,10.60
2018-02-03T11:37:29.576Z,11.40
2018-02-03T11:38:32.055Z,11.43
2018-02-03T11:39:34.603Z,12.55
2018-02-03T11:40:37.071Z,12.25
2018-02-03T11:41:39.567Z,10.23
2018-02-03T11:42:42.034Z,11.77
2018-02-03T11:43:44.509Z,12.05
2018-02-03T11:44:47.042Z,12.02
2018-02-03T11:45:49.517Z,12.07
2018-02-03T11:46:52.009Z,11.70
2018-02-03T11:47:54.504Z,12.60
2018-02-03T11:48:56.981Z,11.82
2018-02-03T11:50:00.306Z,8.60
2018-02-03T11:51:02.955Z,10.20
2018-02-03T11:52:05.500Z,6.47
2018-02-03T11:53:07.966Z,4.72
2018-02-03T11:54:10.852Z,6.03
2018-02-03T11:55:13.331Z,7.00
2018-02-03T11:56:15.821Z,6.45
2018-02-03T11:57:18.380Z,5.87
2018-02-03T11:58:20.856Z,4.72
2018-02-03T11:59:23.333Z,4.22
2018-02-03T12:00:25.869Z,4.40
2018-02-03T12:01:28.341Z,4.65
2018-02-03T12:02:30.821Z,5.70
2018-02-03T12:03:33.279Z,5.40
2018-02-03T12:04:35.776Z,7.00
2018-02-03T12:05:38.275Z,5.95
2018-02-03T12:06:40.797Z,6.68
2018-02-03T12:07:43.277Z,6.25
2018-02-03T12:08:45.739Z,5.00
2018-02-03T12:09:48.226Z,6.50
2018-02-03T12:10:50.707Z,6.37
2018-02-03T12:11:53.180Z,7.80
2018-02-03T12:12:55.653Z,6.55
2018-02-03T12:13:58.138Z,6.72
2018-02-03T12:15:00.612Z,6.40
2018-02-03T12:16:03.143Z,6.70
2018-02-03T12:17:05.613Z,9.43
2018-02-03T12:18:08.095Z,9.82
2018-02-03T12:19:10.574Z,24.48
2018-02-03T12:20:13.049Z,14.05
2018-02-03T12:21:15.587Z,15.43
2018-02-03T12:22:18.059Z,12.48
2018-02-03T12:23:20.535Z,8.10
2018-02-03T12:24:23.017Z,6.78
2018-02-03T12:25:25.497Z,4.70
2018-02-03T12:26:28.009Z,6.35
2018-02-03T12:27:30.466Z,5.60
2018-02-03T12:28:33.030Z,4.57
2018-02-03T12:29:35.524Z,4.70
2018-02-03T12:30:38.049Z,4.65
2018-02-03T12:31:40.547Z,4.70
2018-02-03T12:32:43.003Z,6.28
2018-02-03T12:33:45.460Z,5.53
2018-02-03T12:34:47.910Z,4.50
2018-02-03T12:35:50.382Z,5.87
2018-02-03T12:36:53.715Z,6.12
2018-02-03T12:37:56.184Z,5.12
2018-02-03T12:38:58.677Z,5.20
2018-02-03T12:40:01.135Z,4.72
2018-02-03T12:41:03.681Z,5.60
2018-02-03T12:42:06.163Z,5.07
2018-02-03T12:43:08.628Z,5.00
2018-02-03T12:44:11.083Z,4.97
2018-02-03T12:45:13.552Z,6.10
2018-02-03T12:46:16.010Z,5.70
2018-02-03T12:47:18.491Z,6.28
2018-02-03T12:48:20.947Z,5.80
2018-02-03T12:49:23.407Z,5.93
2018-02-03T12:50:25.866Z,6.22
2018-02-03T12:51:28.344Z,5.85
2018-02-03T12:52:31.038Z,5.95
2018-02-03T12:53:33.495Z,7.50
2018-02-03T12:54:35.963Z,6.07
2018-02-03T12:55:38.410Z,5.37
2018-02-03T12:56:40.892Z,7.72
2018-02-03T12:57:43.375Z,5.60
2018-02-03T12:58:45.853Z,7.45
2018-02-03T12:59:48.340Z,6.68
2018-02-03T13:00:50.798Z,7.82
2018-02-03T13:01:53.255Z,6.50
2018-02-03T13:02:55.763Z,6.53
2018-02-03T13:03:58.227Z,6.28
2018-02-03T13:05:00.691Z,6.85
2018-02-03T13:06:03.151Z,6.82
2018-02-03T13:07:05.617Z,6.35
2018-02-03T13:08:08.116Z,5.97
2018-02-03T13:09:10.663Z,5.43
2018-02-03T13:10:13.132Z,5.90
2018-02-03T13:11:15.652Z,6.03
2018-02-03T13:12:18.195Z,6.70
2018-02-03T13:13:20.687Z,6.15
2018-02-03T13:14:23.134Z,5.95
2018-02-03T13:15:25.608Z,6.12
2018-02-03T13:16:28.067Z,5.50
2018-02-03T13:17:30.533Z,5.10
2018-02-03T13:18:33.044Z,5.47
2018-02-03T13:19:35.675Z,5.50
2018-02-03T13:20:38.151Z,6.10
2018-02-03T13:21:40.626Z,5.35
2018-02-03T13:22:43.101Z,6.40
2018-02-03T13:23:45.579Z,6.55
2018-02-03T13:24:48.053Z,5.62
2018-02-03T13:25:50.691Z,5.90
2018-02-03T13:26:53.182Z,5.78
2018-02-03T13:27:55.662Z,6.20
2018-02-03T13:28:58.185Z,5.28
2018-02-03T13:30:00.675Z,5.70
2018-02-03T13:31:03.134Z,5.78